Terminal Aerodrome Forecast
Issued by NWS

Home | Current Version | Previous Version | Graphics & Text | Print | Product List | Glossary On
Versions: 1 2 3 4 5 6 7 8 9 10 11 12 13 14 15 16 17 18 19
000
FTUS43 KOAX 171000 CCA
TAFCDR
TAF COR
KCDR 171009Z 1710/1806 33004KT P6SM BKN200
     FM171200 VRB04KT P6SM BKN022
     FM171500 VRB05KT P6SM SKC=

USA.gov is the U.S. government's official web portal to all federal, state and local government web resources and services.